sensor_id;sensor_type;location;lat;lon;timestamp;P1;durP1;ratioP1;P2;durP2;ratioP2
73100;SDS011;61288;53.446;-2.266;2023-08-21T00:01:02;8.27;;;2.28;;
73100;SDS011;61288;53.446;-2.266;2023-08-21T00:03:29;6.30;;;2.10;;
73100;SDS011;61288;53.446;-2.266;2023-08-21T00:05:55;10.02;;;2.42;;
73100;SDS011;61288;53.446;-2.266;2023-08-21T00:08:20;8.45;;;2.10;;
73100;SDS011;61288;53.446;-2.266;2023-08-21T00:10:46;10.07;;;2.13;;
73100;SDS011;61288;53.446;-2.266;2023-08-21T00:13:11;9.18;;;2.03;;
73100;SDS011;61288;53.446;-2.266;2023-08-21T00:15:37;9.95;;;2.17;;
73100;SDS011;61288;53.446;-2.266;2023-08-21T00:18:04;9.23;;;2.53;;
73100;SDS011;61288;53.446;-2.266;2023-08-21T00:20:30;11.27;;;2.72;;
73100;SDS011;61288;53.446;-2.266;2023-08-21T00:22:56;7.97;;;2.30;;
73100;SDS011;61288;53.446;-2.266;2023-08-21T00:25:22;8.00;;;1.95;;
73100;SDS011;61288;53.446;-2.266;2023-08-21T00:27:48;9.82;;;2.10;;
73100;SDS011;61288;53.446;-2.266;2023-08-21T00:30:13;9.90;;;2.50;;
73100;SDS011;61288;53.446;-2.266;2023-08-21T00:32:42;10.68;;;2.42;;
73100;SDS011;61288;53.446;-2.266;2023-08-21T00:35:08;7.65;;;1.83;;
73100;SDS011;61288;53.446;-2.266;2023-08-21T00:37:34;8.50;;;2.13;;
73100;SDS011;61288;53.446;-2.266;2023-08-21T00:40:00;14.75;;;2.22;;
73100;SDS011;61288;53.446;-2.266;2023-08-21T00:42:27;7.10;;;2.13;;
73100;SDS011;61288;53.446;-2.266;2023-08-21T00:44:53;9.30;;;1.92;;
73100;SDS011;61288;53.446;-2.266;2023-08-21T00:47:18;7.13;;;1.98;;
73100;SDS011;61288;53.446;-2.266;2023-08-21T00:49:45;13.40;;;2.75;;
73100;SDS011;61288;53.446;-2.266;2023-08-21T00:52:11;12.40;;;2.13;;
73100;SDS011;61288;53.446;-2.266;2023-08-21T00:54:38;10.13;;;2.05;;
73100;SDS011;61288;53.446;-2.266;2023-08-21T00:57:03;6.82;;;2.50;;
73100;SDS011;61288;53.446;-2.266;2023-08-21T00:59:29;12.00;;;2.33;;
73100;SDS011;61288;53.446;-2.266;2023-08-21T01:01:55;9.02;;;2.10;;
73100;SDS011;61288;53.446;-2.266;2023-08-21T01:04:21;7.10;;;1.98;;
73100;SDS011;61288;53.446;-2.266;2023-08-21T01:06:47;7.95;;;2.03;;
73100;SDS011;61288;53.446;-2.266;2023-08-21T01:09:22;11.32;;;2.17;;
73100;SDS011;61288;53.446;-2.266;2023-08-21T01:17:00;9.10;;;2.30;;
73100;SDS011;61288;53.446;-2.266;2023-08-21T01:19:31;9.35;;;2.10;;
73100;SDS011;61288;53.446;-2.266;2023-08-21T01:22:06;8.43;;;2.08;;
73100;SDS011;61288;53.446;-2.266;2023-08-21T01:24:32;10.90;;;2.10;;
73100;SDS011;61288;53.446;-2.266;2023-08-21T01:26:58;10.63;;;2.38;;
73100;SDS011;61288;53.446;-2.266;2023-08-21T01:29:24;13.00;;;2.38;;
73100;SDS011;61288;53.446;-2.266;2023-08-21T01:32:14;8.88;;;1.80;;
73100;SDS011;61288;53.446;-2.266;2023-08-21T01:34:43;10.32;;;2.50;;
73100;SDS011;61288;53.446;-2.266;2023-08-21T01:37:12;10.40;;;2.33;;
73100;SDS011;61288;53.446;-2.266;2023-08-21T01:39:38;10.40;;;2.40;;
73100;SDS011;61288;53.446;-2.266;2023-08-21T01:42:04;13.70;;;2.30;;
73100;SDS011;61288;53.446;-2.266;2023-08-21T01:44:30;8.02;;;1.92;;
73100;SDS011;61288;53.446;-2.266;2023-08-21T01:46:55;9.15;;;2.63;;
73100;SDS011;61288;53.446;-2.266;2023-08-21T01:49:21;7.57;;;2.10;;
73100;SDS011;61288;53.446;-2.266;2023-08-21T01:51:46;8.25;;;2.25;;
73100;SDS011;61288;53.446;-2.266;2023-08-21T01:54:12;11.85;;;2.25;;
73100;SDS011;61288;53.446;-2.266;2023-08-21T01:56:39;11.45;;;2.25;;
73100;SDS011;61288;53.446;-2.266;2023-08-21T01:59:04;9.50;;;1.98;;
73100;SDS011;61288;53.446;-2.266;2023-08-21T02:01:30;15.98;;;2.85;;
73100;SDS011;61288;53.446;-2.266;2023-08-21T02:03:56;9.80;;;2.08;;
73100;SDS011;61288;53.446;-2.266;2023-08-21T02:06:21;11.55;;;2.10;;
73100;SDS011;61288;53.446;-2.266;2023-08-21T02:08:48;7.85;;;1.83;;
73100;SDS011;61288;53.446;-2.266;2023-08-21T02:11:14;7.35;;;1.90;;
73100;SDS011;61288;53.446;-2.266;2023-08-21T02:13:39;11.73;;;3.05;;
73100;SDS011;61288;53.446;-2.266;2023-08-21T02:16:05;8.50;;;1.90;;
73100;SDS011;61288;53.446;-2.266;2023-08-21T02:18:30;12.35;;;2.17;;
73100;SDS011;61288;53.446;-2.266;2023-08-21T02:20:56;13.52;;;2.35;;
73100;SDS011;61288;53.446;-2.266;2023-08-21T02:23:22;9.65;;;2.35;;
73100;SDS011;61288;53.446;-2.266;2023-08-21T02:25:49;8.48;;;2.20;;
73100;SDS011;61288;53.446;-2.266;2023-08-21T02:28:15;7.82;;;2.17;;
73100;SDS011;61288;53.446;-2.266;2023-08-21T02:30:41;9.32;;;2.25;;
73100;SDS011;61288;53.446;-2.266;2023-08-21T02:33:07;8.55;;;2.00;;
73100;SDS011;61288;53.446;-2.266;2023-08-21T02:35:32;10.68;;;2.10;;
73100;SDS011;61288;53.446;-2.266;2023-08-21T02:37:58;7.80;;;1.85;;
73100;SDS011;61288;53.446;-2.266;2023-08-21T02:40:23;6.95;;;2.00;;
73100;SDS011;61288;53.446;-2.266;2023-08-21T02:42:49;10.48;;;2.13;;
73100;SDS011;61288;53.446;-2.266;2023-08-21T02:45:18;8.10;;;2.00;;
73100;SDS011;61288;53.446;-2.266;2023-08-21T02:47:44;9.10;;;2.05;;
73100;SDS011;61288;53.446;-2.266;2023-08-21T02:50:10;8.93;;;2.10;;
73100;SDS011;61288;53.446;-2.266;2023-08-21T02:52:36;9.52;;;2.20;;
73100;SDS011;61288;53.446;-2.266;2023-08-21T02:55:03;6.45;;;1.92;;
73100;SDS011;61288;53.446;-2.266;2023-08-21T02:57:29;10.40;;;1.95;;
73100;SDS011;61288;53.446;-2.266;2023-08-21T02:59:55;8.40;;;1.92;;
73100;SDS011;61288;53.446;-2.266;2023-08-21T03:02:21;13.40;;;1.92;;
73100;SDS011;61288;53.446;-2.266;2023-08-21T03:04:47;8.70;;;2.17;;
73100;SDS011;61288;53.446;-2.266;2023-08-21T03:07:13;8.20;;;2.10;;
73100;SDS011;61288;53.446;-2.266;2023-08-21T03:09:40;6.28;;;1.52;;
73100;SDS011;61288;53.446;-2.266;2023-08-21T03:12:06;7.43;;;1.80;;
73100;SDS011;61288;53.446;-2.266;2023-08-21T03:14:32;11.63;;;2.10;;
73100;SDS011;61288;53.446;-2.266;2023-08-21T03:16:57;9.43;;;1.80;;
73100;SDS011;61288;53.446;-2.266;2023-08-21T03:19:23;7.55;;;2.20;;
73100;SDS011;61288;53.446;-2.266;2023-08-21T03:21:48;9.13;;;2.15;;
73100;SDS011;61288;53.446;-2.266;2023-08-21T03:24:14;10.77;;;2.10;;
73100;SDS011;61288;53.446;-2.266;2023-08-21T03:26:40;8.38;;;1.85;;
73100;SDS011;61288;53.446;-2.266;2023-08-21T03:29:05;5.95;;;1.83;;
73100;SDS011;61288;53.446;-2.266;2023-08-21T03:31:31;7.90;;;1.92;;
73100;SDS011;61288;53.446;-2.266;2023-08-21T03:33:56;10.07;;;1.88;;
73100;SDS011;61288;53.446;-2.266;2023-08-21T03:36:22;7.03;;;2.00;;
73100;SDS011;61288;53.446;-2.266;2023-08-21T03:39:01;9.68;;;1.77;;
73100;SDS011;61288;53.446;-2.266;2023-08-21T03:41:27;7.72;;;1.80;;
73100;SDS011;61288;53.446;-2.266;2023-08-21T03:43:53;7.07;;;1.90;;
73100;SDS011;61288;53.446;-2.266;2023-08-21T03:46:19;11.85;;;1.92;;
73100;SDS011;61288;53.446;-2.266;2023-08-21T03:48:45;11.48;;;2.50;;
73100;SDS011;61288;53.446;-2.266;2023-08-21T03:51:10;9.05;;;1.92;;
73100;SDS011;61288;53.446;-2.266;2023-08-21T03:53:36;9.30;;;2.35;;
73100;SDS011;61288;53.446;-2.266;2023-08-21T03:56:02;11.80;;;2.38;;
73100;SDS011;61288;53.446;-2.266;2023-08-21T03:58:28;9.13;;;2.00;;
73100;SDS011;61288;53.446;-2.266;2023-08-21T04:00:55;10.60;;;2.38;;
73100;SDS011;61288;53.446;-2.266;2023-08-21T04:03:20;8.85;;;2.00;;
73100;SDS011;61288;53.446;-2.266;2023-08-21T04:05:46;9.75;;;2.20;;
73100;SDS011;61288;53.446;-2.266;2023-08-21T04:08:12;10.82;;;2.70;;
73100;SDS011;61288;53.446;-2.266;2023-08-21T04:10:38;9.40;;;1.83;;
73100;SDS011;61288;53.446;-2.266;2023-08-21T04:13:04;10.15;;;2.20;;
73100;SDS011;61288;53.446;-2.266;2023-08-21T04:15:30;11.15;;;2.45;;
73100;SDS011;61288;53.446;-2.266;2023-08-21T04:17:55;8.82;;;1.95;;
73100;SDS011;61288;53.446;-2.266;2023-08-21T04:20:21;10.05;;;2.10;;
73100;SDS011;61288;53.446;-2.266;2023-08-21T04:22:47;7.18;;;2.25;;
73100;SDS011;61288;53.446;-2.266;2023-08-21T04:25:13;7.95;;;2.10;;
73100;SDS011;61288;53.446;-2.266;2023-08-21T04:27:38;9.55;;;2.13;;
73100;SDS011;61288;53.446;-2.266;2023-08-21T04:30:04;8.02;;;1.90;;
73100;SDS011;61288;53.446;-2.266;2023-08-21T04:32:30;13.32;;;2.03;;
73100;SDS011;61288;53.446;-2.266;2023-08-21T04:34:56;7.50;;;1.90;;
73100;SDS011;61288;53.446;-2.266;2023-08-21T04:37:22;8.73;;;2.10;;
73100;SDS011;61288;53.446;-2.266;2023-08-21T04:39:55;8.30;;;1.73;;
73100;SDS011;61288;53.446;-2.266;2023-08-21T04:42:21;9.43;;;1.90;;
73100;SDS011;61288;53.446;-2.266;2023-08-21T04:44:47;5.78;;;1.65;;
73100;SDS011;61288;53.446;-2.266;2023-08-21T04:49:49;7.63;;;2.00;;
73100;SDS011;61288;53.446;-2.266;2023-08-21T04:52:16;10.00;;;2.15;;
73100;SDS011;61288;53.446;-2.266;2023-08-21T04:54:42;11.35;;;2.10;;
73100;SDS011;61288;53.446;-2.266;2023-08-21T04:57:08;10.50;;;2.20;;
73100;SDS011;61288;53.446;-2.266;2023-08-21T04:59:34;9.88;;;2.13;;
73100;SDS011;61288;53.446;-2.266;2023-08-21T05:02:00;6.55;;;1.95;;
73100;SDS011;61288;53.446;-2.266;2023-08-21T05:04:26;7.28;;;2.00;;
73100;SDS011;61288;53.446;-2.266;2023-08-21T05:06:51;9.00;;;2.50;;
73100;SDS011;61288;53.446;-2.266;2023-08-21T05:09:17;7.95;;;1.70;;
73100;SDS011;61288;53.446;-2.266;2023-08-21T05:11:43;11.07;;;2.15;;
73100;SDS011;61288;53.446;-2.266;2023-08-21T05:14:08;6.53;;;2.10;;
73100;SDS011;61288;53.446;-2.266;2023-08-21T05:16:33;9.38;;;1.95;;
73100;SDS011;61288;53.446;-2.266;2023-08-21T05:19:00;6.88;;;1.90;;
73100;SDS011;61288;53.446;-2.266;2023-08-21T05:21:25;10.32;;;2.00;;
73100;SDS011;61288;53.446;-2.266;2023-08-21T05:23:51;11.00;;;2.45;;
73100;SDS011;61288;53.446;-2.266;2023-08-21T05:26:17;8.95;;;2.03;;
73100;SDS011;61288;53.446;-2.266;2023-08-21T05:28:42;7.50;;;1.83;;
73100;SDS011;61288;53.446;-2.266;2023-08-21T05:31:08;8.63;;;2.10;;
73100;SDS011;61288;53.446;-2.266;2023-08-21T05:33:34;7.22;;;1.98;;
73100;SDS011;61288;53.446;-2.266;2023-08-21T05:35:59;8.73;;;2.00;;
73100;SDS011;61288;53.446;-2.266;2023-08-21T05:38:25;10.73;;;2.10;;
73100;SDS011;61288;53.446;-2.266;2023-08-21T05:40:51;6.78;;;1.90;;
73100;SDS011;61288;53.446;-2.266;2023-08-21T05:43:16;6.80;;;1.85;;
73100;SDS011;61288;53.446;-2.266;2023-08-21T05:45:42;6.78;;;1.70;;
73100;SDS011;61288;53.446;-2.266;2023-08-21T05:48:08;9.02;;;2.17;;
73100;SDS011;61288;53.446;-2.266;2023-08-21T05:50:33;9.93;;;2.30;;
73100;SDS011;61288;53.446;-2.266;2023-08-21T05:53:03;8.07;;;2.30;;
73100;SDS011;61288;53.446;-2.266;2023-08-21T05:55:29;8.75;;;2.25;;
73100;SDS011;61288;53.446;-2.266;2023-08-21T05:57:54;9.40;;;2.17;;
73100;SDS011;61288;53.446;-2.266;2023-08-21T06:00:20;9.55;;;2.20;;
73100;SDS011;61288;53.446;-2.266;2023-08-21T06:02:45;7.55;;;1.90;;
73100;SDS011;61288;53.446;-2.266;2023-08-21T06:05:11;4.75;;;1.73;;
73100;SDS011;61288;53.446;-2.266;2023-08-21T06:07:36;7.88;;;2.10;;
73100;SDS011;61288;53.446;-2.266;2023-08-21T06:10:02;9.60;;;2.17;;
73100;SDS011;61288;53.446;-2.266;2023-08-21T06:12:29;9.95;;;2.13;;
73100;SDS011;61288;53.446;-2.266;2023-08-21T06:14:55;9.98;;;2.28;;
73100;SDS011;61288;53.446;-2.266;2023-08-21T06:17:20;8.75;;;2.08;;
73100;SDS011;61288;53.446;-2.266;2023-08-21T06:19:47;7.38;;;1.92;;
73100;SDS011;61288;53.446;-2.266;2023-08-21T06:22:12;9.43;;;1.92;;
73100;SDS011;61288;53.446;-2.266;2023-08-21T06:24:38;7.05;;;1.90;;
73100;SDS011;61288;53.446;-2.266;2023-08-21T06:27:03;7.93;;;2.13;;
73100;SDS011;61288;53.446;-2.266;2023-08-21T06:29:29;8.43;;;1.98;;
73100;SDS011;61288;53.446;-2.266;2023-08-21T06:31:55;6.50;;;1.90;;
73100;SDS011;61288;53.446;-2.266;2023-08-21T06:34:20;7.78;;;2.03;;
73100;SDS011;61288;53.446;-2.266;2023-08-21T06:36:45;9.55;;;2.00;;
73100;SDS011;61288;53.446;-2.266;2023-08-21T06:39:11;9.02;;;2.00;;
73100;SDS011;61288;53.446;-2.266;2023-08-21T06:41:36;5.40;;;1.65;;
73100;SDS011;61288;53.446;-2.266;2023-08-21T06:44:02;7.75;;;1.92;;
73100;SDS011;61288;53.446;-2.266;2023-08-21T06:46:27;7.40;;;2.10;;
73100;SDS011;61288;53.446;-2.266;2023-08-21T06:48:53;7.55;;;2.20;;
73100;SDS011;61288;53.446;-2.266;2023-08-21T06:51:18;7.95;;;1.85;;
73100;SDS011;61288;53.446;-2.266;2023-08-21T06:53:44;13.93;;;2.95;;
73100;SDS011;61288;53.446;-2.266;2023-08-21T06:56:09;6.10;;;1.52;;
73100;SDS011;61288;53.446;-2.266;2023-08-21T06:58:35;10.10;;;2.00;;
73100;SDS011;61288;53.446;-2.266;2023-08-21T07:01:00;9.27;;;2.13;;
73100;SDS011;61288;53.446;-2.266;2023-08-21T07:03:26;12.48;;;2.20;;
73100;SDS011;61288;53.446;-2.266;2023-08-21T07:05:55;9.77;;;2.10;;
73100;SDS011;61288;53.446;-2.266;2023-08-21T07:08:25;6.93;;;1.83;;
73100;SDS011;61288;53.446;-2.266;2023-08-21T07:10:52;9.10;;;2.00;;
73100;SDS011;61288;53.446;-2.266;2023-08-21T07:13:19;5.85;;;1.70;;
73100;SDS011;61288;53.446;-2.266;2023-08-21T07:15:45;7.57;;;1.88;;
73100;SDS011;61288;53.446;-2.266;2023-08-21T07:18:11;9.77;;;2.00;;
73100;SDS011;61288;53.446;-2.266;2023-08-21T07:20:37;10.82;;;2.15;;
73100;SDS011;61288;53.446;-2.266;2023-08-21T07:23:03;9.77;;;2.00;;
73100;SDS011;61288;53.446;-2.266;2023-08-21T07:25:28;10.57;;;2.25;;
73100;SDS011;61288;53.446;-2.266;2023-08-21T07:27:54;11.05;;;1.83;;
73100;SDS011;61288;53.446;-2.266;2023-08-21T07:30:20;5.05;;;1.73;;
73100;SDS011;61288;53.446;-2.266;2023-08-21T07:32:47;7.85;;;1.77;;
73100;SDS011;61288;53.446;-2.266;2023-08-21T07:35:14;8.80;;;1.95;;
73100;SDS011;61288;53.446;-2.266;2023-08-21T07:37:43;6.53;;;1.60;;
73100;SDS011;61288;53.446;-2.266;2023-08-21T07:42:36;11.02;;;1.90;;
73100;SDS011;61288;53.446;-2.266;2023-08-21T07:45:02;9.70;;;2.10;;
73100;SDS011;61288;53.446;-2.266;2023-08-21T07:47:28;8.68;;;2.10;;
73100;SDS011;61288;53.446;-2.266;2023-08-21T07:49:53;9.55;;;2.22;;
73100;SDS011;61288;53.446;-2.266;2023-08-21T07:52:20;8.10;;;2.20;;
73100;SDS011;61288;53.446;-2.266;2023-08-21T07:54:45;9.35;;;2.00;;
73100;SDS011;61288;53.446;-2.266;2023-08-21T07:57:11;13.05;;;2.15;;
73100;SDS011;61288;53.446;-2.266;2023-08-21T07:59:38;6.85;;;1.75;;
73100;SDS011;61288;53.446;-2.266;2023-08-21T08:02:03;10.77;;;2.00;;
73100;SDS011;61288;53.446;-2.266;2023-08-21T08:04:29;9.70;;;2.03;;
73100;SDS011;61288;53.446;-2.266;2023-08-21T08:06:55;10.77;;;2.00;;
73100;SDS011;61288;53.446;-2.266;2023-08-21T08:09:21;8.13;;;2.00;;
73100;SDS011;61288;53.446;-2.266;2023-08-21T08:11:46;8.80;;;2.17;;
73100;SDS011;61288;53.446;-2.266;2023-08-21T08:14:11;9.63;;;1.90;;
73100;SDS011;61288;53.446;-2.266;2023-08-21T08:16:37;8.15;;;1.65;;
73100;SDS011;61288;53.446;-2.266;2023-08-21T08:19:02;5.63;;;1.75;;
73100;SDS011;61288;53.446;-2.266;2023-08-21T08:21:28;11.35;;;2.10;;
73100;SDS011;61288;53.446;-2.266;2023-08-21T08:23:53;9.57;;;2.13;;
73100;SDS011;61288;53.446;-2.266;2023-08-21T08:26:19;10.43;;;1.80;;
73100;SDS011;61288;53.446;-2.266;2023-08-21T08:28:44;11.45;;;2.10;;
73100;SDS011;61288;53.446;-2.266;2023-08-21T08:31:16;9.40;;;1.92;;
73100;SDS011;61288;53.446;-2.266;2023-08-21T08:33:43;10.02;;;2.00;;
73100;SDS011;61288;53.446;-2.266;2023-08-21T08:36:10;10.73;;;1.73;;
73100;SDS011;61288;53.446;-2.266;2023-08-21T08:38:36;7.80;;;1.75;;
73100;SDS011;61288;53.446;-2.266;2023-08-21T08:41:02;7.65;;;1.77;;
73100;SDS011;61288;53.446;-2.266;2023-08-21T08:43:35;7.35;;;1.63;;
73100;SDS011;61288;53.446;-2.266;2023-08-21T08:46:05;7.30;;;1.70;;
73100;SDS011;61288;53.446;-2.266;2023-08-21T08:48:33;9.50;;;1.90;;
73100;SDS011;61288;53.446;-2.266;2023-08-21T08:50:59;11.30;;;2.22;;
73100;SDS011;61288;53.446;-2.266;2023-08-21T08:53:27;6.22;;;1.50;;
73100;SDS011;61288;53.446;-2.266;2023-08-21T08:55:53;7.18;;;1.70;;
73100;SDS011;61288;53.446;-2.266;2023-08-21T08:58:19;7.93;;;1.95;;
73100;SDS011;61288;53.446;-2.266;2023-08-21T09:00:44;9.10;;;1.52;;
73100;SDS011;61288;53.446;-2.266;2023-08-21T09:03:10;7.28;;;1.73;;
73100;SDS011;61288;53.446;-2.266;2023-08-21T09:05:38;11.32;;;1.83;;
73100;SDS011;61288;53.446;-2.266;2023-08-21T09:08:09;9.98;;;1.90;;
73100;SDS011;61288;53.446;-2.266;2023-08-21T09:10:40;5.10;;;1.52;;
73100;SDS011;61288;53.446;-2.266;2023-08-21T09:15:40;7.50;;;1.52;;
73100;SDS011;61288;53.446;-2.266;2023-08-21T09:18:09;8.25;;;1.63;;
73100;SDS011;61288;53.446;-2.266;2023-08-21T09:20:35;5.82;;;1.65;;
73100;SDS011;61288;53.446;-2.266;2023-08-21T09:23:02;7.32;;;1.83;;
73100;SDS011;61288;53.446;-2.266;2023-08-21T09:25:29;6.07;;;1.77;;
73100;SDS011;61288;53.446;-2.266;2023-08-21T09:28:03;7.93;;;1.83;;
73100;SDS011;61288;53.446;-2.266;2023-08-21T09:30:29;8.27;;;1.55;;
73100;SDS011;61288;53.446;-2.266;2023-08-21T09:32:56;7.53;;;1.40;;
73100;SDS011;61288;53.446;-2.266;2023-08-21T09:35:24;6.93;;;1.77;;
73100;SDS011;61288;53.446;-2.266;2023-08-21T09:37:51;6.95;;;1.60;;
73100;SDS011;61288;53.446;-2.266;2023-08-21T09:40:22;11.82;;;2.00;;
73100;SDS011;61288;53.446;-2.266;2023-08-21T09:42:51;5.88;;;1.85;;
73100;SDS011;61288;53.446;-2.266;2023-08-21T09:45:22;10.65;;;1.98;;
73100;SDS011;61288;53.446;-2.266;2023-08-21T09:47:49;7.35;;;1.45;;
73100;SDS011;61288;53.446;-2.266;2023-08-21T09:50:16;6.53;;;1.70;;
73100;SDS011;61288;53.446;-2.266;2023-08-21T09:52:43;7.85;;;1.67;;
73100;SDS011;61288;53.446;-2.266;2023-08-21T09:55:09;8.77;;;1.58;;
73100;SDS011;61288;53.446;-2.266;2023-08-21T09:57:36;5.80;;;1.40;;
73100;SDS011;61288;53.446;-2.266;2023-08-21T10:00:02;7.75;;;1.70;;
73100;SDS011;61288;53.446;-2.266;2023-08-21T10:02:41;8.90;;;1.73;;
73100;SDS011;61288;53.446;-2.266;2023-08-21T10:05:13;6.13;;;1.52;;
73100;SDS011;61288;53.446;-2.266;2023-08-21T10:07:39;9.40;;;1.60;;
73100;SDS011;61288;53.446;-2.266;2023-08-21T10:10:08;5.88;;;1.50;;
73100;SDS011;61288;53.446;-2.266;2023-08-21T10:12:34;5.28;;;1.58;;
73100;SDS011;61288;53.446;-2.266;2023-08-21T10:14:59;7.22;;;1.48;;
73100;SDS011;61288;53.446;-2.266;2023-08-21T10:17:26;5.28;;;1.40;;
73100;SDS011;61288;53.446;-2.266;2023-08-21T10:19:51;6.05;;;1.42;;
73100;SDS011;61288;53.446;-2.266;2023-08-21T10:22:39;7.20;;;1.65;;
73100;SDS011;61288;53.446;-2.266;2023-08-21T10:27:54;7.28;;;1.92;;
73100;SDS011;61288;53.446;-2.266;2023-08-21T10:30:25;6.53;;;1.50;;
73100;SDS011;61288;53.446;-2.266;2023-08-21T10:32:53;8.10;;;1.60;;
73100;SDS011;61288;53.446;-2.266;2023-08-21T10:35:23;8.45;;;1.70;;
73100;SDS011;61288;53.446;-2.266;2023-08-21T10:38:06;8.40;;;1.90;;
73100;SDS011;61288;53.446;-2.266;2023-08-21T10:43:41;8.18;;;1.60;;
73100;SDS011;61288;53.446;-2.266;2023-08-21T10:46:08;5.57;;;1.55;;
73100;SDS011;61288;53.446;-2.266;2023-08-21T10:48:35;6.05;;;1.67;;
73100;SDS011;61288;53.446;-2.266;2023-08-21T10:51:02;3.88;;;1.30;;
73100;SDS011;61288;53.446;-2.266;2023-08-21T10:53:30;7.07;;;1.73;;
73100;SDS011;61288;53.446;-2.266;2023-08-21T10:55:57;7.88;;;1.52;;
73100;SDS011;61288;53.446;-2.266;2023-08-21T10:58:25;6.20;;;1.58;;
73100;SDS011;61288;53.446;-2.266;2023-08-21T11:00:57;8.85;;;1.77;;
73100;SDS011;61288;53.446;-2.266;2023-08-21T11:03:23;6.07;;;1.55;;
73100;SDS011;61288;53.446;-2.266;2023-08-21T11:06:02;8.50;;;2.00;;
73100;SDS011;61288;53.446;-2.266;2023-08-21T11:08:36;7.22;;;1.65;;
73100;SDS011;61288;53.446;-2.266;2023-08-21T11:11:02;10.10;;;1.75;;
73100;SDS011;61288;53.446;-2.266;2023-08-21T11:13:29;6.57;;;1.60;;
73100;SDS011;61288;53.446;-2.266;2023-08-21T11:15:59;7.35;;;1.70;;
73100;SDS011;61288;53.446;-2.266;2023-08-21T11:18:36;6.80;;;1.80;;
73100;SDS011;61288;53.446;-2.266;2023-08-21T11:21:04;6.05;;;1.75;;
73100;SDS011;61288;53.446;-2.266;2023-08-21T11:23:33;6.20;;;1.70;;
73100;SDS011;61288;53.446;-2.266;2023-08-21T11:26:00;3.55;;;1.42;;
73100;SDS011;61288;53.446;-2.266;2023-08-21T11:28:26;6.85;;;1.50;;
73100;SDS011;61288;53.446;-2.266;2023-08-21T11:30:54;8.27;;;1.90;;
73100;SDS011;61288;53.446;-2.266;2023-08-21T11:33:21;3.78;;;1.42;;
73100;SDS011;61288;53.446;-2.266;2023-08-21T11:35:47;6.50;;;1.73;;
73100;SDS011;61288;53.446;-2.266;2023-08-21T11:38:16;4.65;;;1.60;;
73100;SDS011;61288;53.446;-2.266;2023-08-21T11:40:42;6.28;;;1.70;;
73100;SDS011;61288;53.446;-2.266;2023-08-21T11:43:07;7.78;;;1.52;;
73100;SDS011;61288;53.446;-2.266;2023-08-21T11:45:34;5.82;;;1.77;;
73100;SDS011;61288;53.446;-2.266;2023-08-21T11:48:00;5.97;;;1.60;;
73100;SDS011;61288;53.446;-2.266;2023-08-21T11:50:25;6.47;;;1.45;;
73100;SDS011;61288;53.446;-2.266;2023-08-21T11:52:52;5.13;;;1.48;;
73100;SDS011;61288;53.446;-2.266;2023-08-21T11:55:18;8.07;;;1.98;;
73100;SDS011;61288;53.446;-2.266;2023-08-21T11:57:48;5.50;;;1.55;;
73100;SDS011;61288;53.446;-2.266;2023-08-21T12:00:26;8.55;;;1.73;;
73100;SDS011;61288;53.446;-2.266;2023-08-21T12:02:56;5.72;;;1.60;;
73100;SDS011;61288;53.446;-2.266;2023-08-21T12:05:28;5.57;;;1.40;;
73100;SDS011;61288;53.446;-2.266;2023-08-21T12:07:54;5.38;;;1.23;;
73100;SDS011;61288;53.446;-2.266;2023-08-21T12:10:24;3.70;;;1.17;;
73100;SDS011;61288;53.446;-2.266;2023-08-21T12:12:51;5.75;;;1.35;;
73100;SDS011;61288;53.446;-2.266;2023-08-21T12:15:16;3.17;;;1.00;;
73100;SDS011;61288;53.446;-2.266;2023-08-21T12:17:42;3.10;;;1.17;;
73100;SDS011;61288;53.446;-2.266;2023-08-21T12:20:08;5.00;;;1.20;;
73100;SDS011;61288;53.446;-2.266;2023-08-21T12:22:36;3.22;;;1.17;;
73100;SDS011;61288;53.446;-2.266;2023-08-21T12:25:02;4.00;;;1.23;;
73100;SDS011;61288;53.446;-2.266;2023-08-21T12:27:29;3.28;;;1.00;;
73100;SDS011;61288;53.446;-2.266;2023-08-21T12:29:56;3.35;;;1.10;;
73100;SDS011;61288;53.446;-2.266;2023-08-21T12:32:21;4.55;;;1.10;;
73100;SDS011;61288;53.446;-2.266;2023-08-21T12:34:48;3.08;;;1.08;;
73100;SDS011;61288;53.446;-2.266;2023-08-21T12:37:16;2.30;;;1.00;;
73100;SDS011;61288;53.446;-2.266;2023-08-21T12:39:42;4.82;;;1.00;;
73100;SDS011;61288;53.446;-2.266;2023-08-21T12:42:11;3.75;;;1.27;;
73100;SDS011;61288;53.446;-2.266;2023-08-21T12:44:38;1.70;;;0.95;;
73100;SDS011;61288;53.446;-2.266;2023-08-21T12:47:10;2.30;;;0.95;;
73100;SDS011;61288;53.446;-2.266;2023-08-21T12:49:36;5.53;;;1.48;;
73100;SDS011;61288;53.446;-2.266;2023-08-21T12:52:01;4.70;;;1.33;;
73100;SDS011;61288;53.446;-2.266;2023-08-21T12:54:28;7.75;;;1.20;;
73100;SDS011;61288;53.446;-2.266;2023-08-21T12:56:54;2.80;;;1.02;;
73100;SDS011;61288;53.446;-2.266;2023-08-21T12:59:27;3.97;;;1.13;;
73100;SDS011;61288;53.446;-2.266;2023-08-21T13:01:53;5.10;;;1.10;;
73100;SDS011;61288;53.446;-2.266;2023-08-21T13:04:20;3.72;;;0.93;;
73100;SDS011;61288;53.446;-2.266;2023-08-21T13:09:43;3.03;;;1.02;;
73100;SDS011;61288;53.446;-2.266;2023-08-21T13:12:08;3.67;;;1.40;;
73100;SDS011;61288;53.446;-2.266;2023-08-21T13:14:34;4.10;;;1.10;;
73100;SDS011;61288;53.446;-2.266;2023-08-21T13:17:11;4.70;;;1.00;;
73100;SDS011;61288;53.446;-2.266;2023-08-21T13:19:42;4.53;;;1.00;;
73100;SDS011;61288;53.446;-2.266;2023-08-21T13:22:08;4.80;;;1.20;;
73100;SDS011;61288;53.446;-2.266;2023-08-21T13:24:33;4.50;;;1.20;;
73100;SDS011;61288;53.446;-2.266;2023-08-21T13:26:59;3.38;;;1.30;;
73100;SDS011;61288;53.446;-2.266;2023-08-21T13:29:24;4.88;;;1.15;;
73100;SDS011;61288;53.446;-2.266;2023-08-21T13:31:50;3.47;;;1.27;;
73100;SDS011;61288;53.446;-2.266;2023-08-21T13:34:24;2.55;;;1.02;;
73100;SDS011;61288;53.446;-2.266;2023-08-21T13:36:50;4.18;;;0.95;;
73100;SDS011;61288;53.446;-2.266;2023-08-21T13:39:19;2.50;;;1.10;;
73100;SDS011;61288;53.446;-2.266;2023-08-21T13:41:50;5.72;;;1.23;;
73100;SDS011;61288;53.446;-2.266;2023-08-21T13:44:31;3.92;;;1.20;;
73100;SDS011;61288;53.446;-2.266;2023-08-21T13:47:07;5.57;;;1.25;;
73100;SDS011;61288;53.446;-2.266;2023-08-21T13:49:32;3.83;;;1.00;;
73100;SDS011;61288;53.446;-2.266;2023-08-21T13:51:58;3.13;;;1.00;;
73100;SDS011;61288;53.446;-2.266;2023-08-21T13:54:23;4.53;;;1.00;;
73100;SDS011;61288;53.446;-2.266;2023-08-21T13:56:49;3.95;;;1.20;;
73100;SDS011;61288;53.446;-2.266;2023-08-21T13:59:14;2.72;;;1.15;;
73100;SDS011;61288;53.446;-2.266;2023-08-21T14:01:40;3.60;;;1.20;;
73100;SDS011;61288;53.446;-2.266;2023-08-21T14:04:05;3.30;;;1.00;;
73100;SDS011;61288;53.446;-2.266;2023-08-21T14:06:31;2.63;;;1.00;;
73100;SDS011;61288;53.446;-2.266;2023-08-21T14:08:56;2.72;;;1.00;;
73100;SDS011;61288;53.446;-2.266;2023-08-21T14:11:22;2.17;;;0.88;;
73100;SDS011;61288;53.446;-2.266;2023-08-21T14:13:56;9.70;;;1.55;;
73100;SDS011;61288;53.446;-2.266;2023-08-21T14:16:24;4.88;;;1.13;;
73100;SDS011;61288;53.446;-2.266;2023-08-21T14:18:50;4.00;;;1.02;;
73100;SDS011;61288;53.446;-2.266;2023-08-21T14:21:36;4.20;;;1.20;;
73100;SDS011;61288;53.446;-2.266;2023-08-21T14:24:01;2.72;;;1.08;;
73100;SDS011;61288;53.446;-2.266;2023-08-21T14:26:27;4.72;;;1.10;;
73100;SDS011;61288;53.446;-2.266;2023-08-21T14:28:53;4.75;;;1.10;;
73100;SDS011;61288;53.446;-2.266;2023-08-21T14:31:19;4.03;;;1.13;;
73100;SDS011;61288;53.446;-2.266;2023-08-21T14:33:45;3.63;;;1.20;;
73100;SDS011;61288;53.446;-2.266;2023-08-21T14:36:10;3.17;;;0.95;;
73100;SDS011;61288;53.446;-2.266;2023-08-21T14:38:38;4.80;;;1.30;;
73100;SDS011;61288;53.446;-2.266;2023-08-21T14:41:04;4.20;;;1.23;;
73100;SDS011;61288;53.446;-2.266;2023-08-21T14:43:29;4.85;;;1.30;;
73100;SDS011;61288;53.446;-2.266;2023-08-21T14:45:57;2.13;;;0.98;;
73100;SDS011;61288;53.446;-2.266;2023-08-21T14:48:24;2.67;;;1.08;;
73100;SDS011;61288;53.446;-2.266;2023-08-21T14:50:59;5.38;;;1.10;;